createdAt,value
2022-08-24T00:00:18.134Z,4.60
2022-08-24T00:01:18.098Z,4.40
2022-08-24T00:02:18.230Z,4.50
2022-08-24T00:03:18.192Z,4.30
2022-08-24T00:04:18.064Z,4.70
2022-08-24T00:05:18.020Z,4.50
2022-08-24T00:06:18.056Z,4.40
2022-08-24T00:07:23.722Z,4.60
2022-08-24T00:08:17.979Z,4.20
2022-08-24T00:09:17.972Z,4.70
2022-08-24T00:10:17.952Z,4.50
2022-08-24T00:11:17.934Z,6.20
2022-08-24T00:12:17.967Z,7.20
2022-08-24T00:13:17.900Z,7.00
2022-08-24T00:14:17.900Z,5.80
2022-08-24T00:15:17.883Z,5.80
2022-08-24T00:16:17.923Z,5.60
2022-08-24T00:17:17.846Z,4.60
2022-08-24T00:18:17.884Z,5.10
2022-08-24T00:19:17.844Z,5.20
2022-08-24T00:20:17.816Z,5.10
2022-08-24T00:21:17.837Z,5.00
2022-08-24T00:22:17.848Z,5.00
2022-08-24T00:23:17.848Z,4.90
2022-08-24T00:24:17.763Z,4.70
2022-08-24T00:25:17.759Z,4.90
2022-08-24T00:26:19.508Z,4.90
2022-08-24T00:27:17.757Z,4.80
2022-08-24T00:28:17.704Z,5.30
2022-08-24T00:29:17.741Z,5.10
2022-08-24T00:30:17.720Z,4.70
2022-08-24T00:31:17.742Z,5.00
2022-08-24T00:32:17.676Z,4.90
2022-08-24T00:33:17.671Z,5.10
2022-08-24T00:34:17.619Z,4.80
2022-08-24T00:35:17.607Z,5.40
2022-08-24T00:36:17.634Z,4.90
2022-08-24T00:37:17.572Z,5.00
2022-08-24T00:38:17.586Z,5.30
2022-08-24T00:39:17.550Z,5.30
2022-08-24T00:40:17.582Z,5.00
2022-08-24T00:41:17.516Z,4.80
2022-08-24T00:42:17.530Z,4.80
2022-08-24T00:43:17.532Z,5.40
2022-08-24T00:44:17.480Z,5.00
2022-08-24T00:45:17.489Z,4.80
2022-08-24T00:46:17.458Z,4.70
2022-08-24T00:47:17.445Z,4.70
2022-08-24T00:48:17.456Z,5.10
2022-08-24T00:49:17.414Z,5.20
2022-08-24T00:50:17.399Z,5.10
2022-08-24T00:51:17.380Z,5.20
2022-08-24T00:52:17.405Z,4.70
2022-08-24T00:53:17.394Z,5.20
2022-08-24T00:54:17.349Z,5.00
2022-08-24T00:55:17.358Z,5.50
2022-08-24T00:56:17.320Z,4.80
2022-08-24T00:57:17.311Z,5.00
2022-08-24T00:58:18.665Z,4.90
2022-08-24T00:59:17.285Z,5.30
2022-08-24T01:00:17.320Z,5.40
2022-08-24T01:01:17.324Z,5.10
2022-08-24T01:02:17.307Z,5.40
2022-08-24T01:03:17.227Z,5.60
2022-08-24T01:04:17.270Z,5.30
2022-08-24T01:05:17.188Z,5.80
2022-08-24T01:06:17.182Z,5.70
2022-08-24T01:07:17.161Z,5.40
2022-08-24T01:08:17.182Z,5.50
2022-08-24T01:09:17.136Z,5.30
2022-08-24T01:10:17.139Z,5.50
2022-08-24T01:11:17.115Z,5.30
2022-08-24T01:12:17.100Z,5.40
2022-08-24T01:13:17.115Z,5.50
2022-08-24T01:14:17.075Z,5.40
2022-08-24T01:15:17.086Z,5.50
2022-08-24T01:16:17.108Z,5.50
2022-08-24T01:17:17.048Z,5.10
2022-08-24T01:18:17.017Z,5.40
2022-08-24T01:19:17.014Z,5.10
2022-08-24T01:20:17.018Z,5.90
2022-08-24T01:21:17.024Z,5.00
2022-08-24T01:22:17.012Z,5.40
2022-08-24T01:23:16.942Z,5.40
2022-08-24T01:24:16.955Z,5.70
2022-08-24T01:25:16.926Z,5.90
2022-08-24T01:26:16.913Z,5.40
2022-08-24T01:27:17.470Z,5.70
2022-08-24T01:28:16.934Z,5.30
2022-08-24T01:29:16.905Z,5.80
2022-08-24T01:30:16.865Z,5.50
2022-08-24T01:31:16.919Z,5.90
2022-08-24T01:32:16.823Z,5.80
2022-08-24T01:33:16.850Z,5.60
2022-08-24T01:34:16.798Z,5.10
2022-08-24T01:35:16.835Z,5.30
2022-08-24T01:36:16.778Z,5.30
2022-08-24T01:37:16.763Z,5.10
2022-08-24T01:38:16.785Z,5.10
2022-08-24T01:39:16.727Z,5.50
2022-08-24T01:40:16.799Z,5.60
2022-08-24T01:41:16.703Z,5.40
2022-08-24T01:42:16.694Z,5.30
2022-08-24T01:43:16.722Z,5.70
2022-08-24T01:44:16.666Z,5.40
2022-08-24T01:45:16.695Z,5.20
2022-08-24T01:46:16.715Z,5.70
2022-08-24T01:47:16.621Z,5.60
2022-08-24T01:48:22.732Z,5.40
2022-08-24T01:49:16.631Z,5.60
2022-08-24T01:50:16.635Z,5.50
2022-08-24T01:51:16.578Z,5.40
2022-08-24T01:52:16.571Z,5.60
2022-08-24T01:53:16.784Z,5.80
2022-08-24T01:54:16.525Z,5.60
2022-08-24T01:55:19.029Z,5.60
2022-08-24T01:56:16.526Z,5.90
2022-08-24T01:57:17.167Z,5.60
2022-08-24T01:58:16.471Z,5.70
2022-08-24T01:59:16.459Z,5.80
2022-08-24T02:00:16.442Z,6.00
2022-08-24T02:01:16.451Z,5.50
2022-08-24T02:02:16.556Z,5.60
2022-08-24T02:03:16.460Z,5.30
2022-08-24T02:04:17.680Z,5.80
2022-08-24T02:05:16.376Z,5.20
2022-08-24T02:06:16.387Z,5.80
2022-08-24T02:07:16.432Z,6.00
2022-08-24T02:08:16.365Z,6.10
2022-08-24T02:09:16.311Z,5.50
2022-08-24T02:10:16.307Z,5.70
2022-08-24T02:11:16.290Z,5.80
2022-08-24T02:12:16.302Z,6.10
2022-08-24T02:13:16.279Z,5.70
2022-08-24T02:14:16.253Z,5.70
2022-08-24T02:15:16.288Z,5.70
2022-08-24T02:16:16.303Z,5.90
2022-08-24T02:17:16.224Z,5.80
2022-08-24T02:18:16.231Z,5.70
2022-08-24T02:19:16.189Z,6.30
2022-08-24T02:20:16.173Z,5.90
2022-08-24T02:21:16.150Z,6.00
2022-08-24T02:22:16.143Z,5.80
2022-08-24T02:23:16.163Z,5.60
2022-08-24T02:24:16.126Z,5.70
2022-08-24T02:25:16.129Z,5.80
2022-08-24T02:26:16.087Z,5.80
2022-08-24T02:27:16.074Z,5.80
2022-08-24T02:28:16.091Z,5.90
2022-08-24T02:29:16.090Z,6.40
2022-08-24T02:30:16.064Z,5.80
2022-08-24T02:31:16.088Z,6.30
2022-08-24T02:32:16.019Z,5.70
2022-08-24T02:33:15.988Z,6.70
2022-08-24T02:34:16.007Z,5.80
2022-08-24T02:35:15.967Z,6.00
2022-08-24T02:36:26.316Z,5.80
2022-08-24T02:37:15.947Z,6.00
2022-08-24T02:38:15.921Z,6.00
2022-08-24T02:39:15.941Z,5.90
2022-08-24T02:40:16.014Z,5.90
2022-08-24T02:41:15.888Z,6.30
2022-08-24T02:42:15.932Z,6.30
2022-08-24T02:43:15.889Z,6.20
2022-08-24T02:44:15.849Z,5.80
2022-08-24T02:45:15.844Z,6.30
2022-08-24T02:46:15.890Z,6.00
2022-08-24T02:47:15.838Z,6.10
2022-08-24T02:48:15.824Z,5.90
2022-08-24T02:49:15.801Z,6.10
2022-08-24T02:50:15.784Z,5.70
2022-08-24T02:51:15.768Z,6.30
2022-08-24T02:52:15.744Z,6.00
2022-08-24T02:53:15.717Z,6.10
2022-08-24T02:54:15.713Z,6.30
2022-08-24T02:55:15.724Z,6.30
2022-08-24T02:56:15.678Z,6.00
2022-08-24T02:57:15.738Z,6.20
2022-08-24T02:58:15.700Z,6.10
2022-08-24T02:59:15.651Z,6.20
2022-08-24T03:00:15.653Z,6.30
2022-08-24T03:01:17.767Z,6.30
2022-08-24T03:02:15.627Z,6.30
2022-08-24T03:03:15.584Z,6.20
2022-08-24T03:04:15.590Z,6.00
2022-08-24T03:05:15.574Z,6.30
2022-08-24T03:06:15.557Z,6.20
2022-08-24T03:07:15.568Z,6.00
2022-08-24T03:08:15.515Z,5.80
2022-08-24T03:09:15.515Z,6.00
2022-08-24T03:10:15.496Z,5.70
2022-08-24T03:11:15.512Z,6.60
2022-08-24T03:12:15.487Z,6.20
2022-08-24T03:13:15.452Z,6.40
2022-08-24T03:14:15.431Z,6.40
2022-08-24T03:15:15.419Z,6.10
2022-08-24T03:16:15.507Z,6.10
2022-08-24T03:17:15.429Z,5.90
2022-08-24T03:18:15.397Z,6.60
2022-08-24T03:19:15.366Z,6.40
2022-08-24T03:20:15.345Z,6.50
2022-08-24T03:21:15.350Z,6.00
2022-08-24T03:22:15.360Z,6.80
2022-08-24T03:23:15.321Z,6.40
2022-08-24T03:24:15.330Z,6.60
2022-08-24T03:25:15.306Z,6.20
2022-08-24T03:26:15.296Z,6.20
2022-08-24T03:27:15.278Z,6.10
2022-08-24T03:28:15.243Z,6.10
2022-08-24T03:29:15.878Z,6.20
2022-08-24T03:30:15.216Z,6.70
2022-08-24T03:31:15.245Z,6.20
2022-08-24T03:32:15.185Z,6.50
2022-08-24T03:33:15.177Z,7.00
2022-08-24T03:34:15.212Z,6.60
2022-08-24T03:35:15.156Z,6.70
2022-08-24T03:36:15.137Z,7.00
2022-08-24T03:37:15.159Z,6.80
2022-08-24T03:38:15.112Z,6.90
2022-08-24T03:39:15.112Z,6.60
2022-08-24T03:40:22.867Z,7.00
2022-08-24T03:41:15.075Z,6.40
2022-08-24T03:42:15.050Z,7.00
2022-08-24T03:43:15.088Z,7.00
2022-08-24T03:44:15.044Z,6.30
2022-08-24T03:45:15.058Z,6.60
2022-08-24T03:46:15.050Z,6.50
2022-08-24T03:47:15.033Z,6.20
2022-08-24T03:48:14.972Z,6.70
2022-08-24T03:49:14.964Z,6.30
2022-08-24T03:50:14.950Z,6.60
2022-08-24T03:51:15.071Z,6.80
2022-08-24T03:52:14.968Z,6.70
2022-08-24T03:53:14.932Z,6.70
2022-08-24T03:54:14.884Z,6.90
2022-08-24T03:55:14.905Z,6.70
2022-08-24T03:56:14.892Z,6.70
2022-08-24T03:57:14.855Z,6.40
2022-08-24T03:58:14.861Z,6.60
2022-08-24T03:59:18.936Z,6.10
2022-08-24T04:00:14.810Z,6.60
2022-08-24T04:01:14.870Z,6.70
2022-08-24T04:02:14.878Z,6.50
2022-08-24T04:03:14.766Z,6.70
2022-08-24T04:04:14.763Z,6.40
2022-08-24T04:05:14.743Z,6.20
2022-08-24T04:06:14.731Z,6.60
2022-08-24T04:07:14.761Z,6.40
2022-08-24T04:08:14.726Z,6.10
2022-08-24T04:09:14.686Z,6.00
2022-08-24T04:10:14.699Z,6.40
2022-08-24T04:11:14.661Z,6.60
2022-08-24T04:12:14.649Z,6.80
2022-08-24T04:13:14.637Z,6.70
2022-08-24T04:14:23.720Z,6.80
2022-08-24T04:15:14.611Z,6.40
2022-08-24T04:16:14.671Z,6.50
2022-08-24T04:17:14.586Z,6.60
2022-08-24T04:18:14.583Z,6.80
2022-08-24T04:19:14.576Z,6.50
2022-08-24T04:20:14.531Z,7.50
2022-08-24T04:21:14.519Z,6.60
2022-08-24T04:22:14.518Z,7.60
2022-08-24T04:23:14.493Z,7.00
2022-08-24T04:24:14.506Z,6.90
2022-08-24T04:25:14.477Z,7.50
2022-08-24T04:26:14.454Z,7.50
2022-08-24T04:27:14.441Z,6.80
2022-08-24T04:28:14.429Z,7.10
2022-08-24T04:29:14.444Z,7.20
2022-08-24T04:30:14.639Z,7.50
2022-08-24T04:31:14.423Z,7.10
2022-08-24T04:32:14.384Z,7.20
2022-08-24T04:33:14.355Z,7.00
2022-08-24T04:34:14.418Z,6.70
2022-08-24T04:35:14.359Z,7.50
2022-08-24T04:36:14.336Z,7.10
2022-08-24T04:37:14.380Z,7.70
2022-08-24T04:38:14.387Z,7.50
2022-08-24T04:39:14.277Z,7.60
2022-08-24T04:40:14.320Z,8.00
2022-08-24T04:41:14.243Z,7.70
2022-08-24T04:42:14.268Z,7.50
2022-08-24T04:43:17.839Z,7.70
2022-08-24T04:44:14.245Z,7.30
2022-08-24T04:45:14.197Z,7.20
2022-08-24T04:46:14.258Z,7.30
2022-08-24T04:47:14.172Z,7.70
2022-08-24T04:48:14.152Z,7.80
2022-08-24T04:49:14.174Z,8.10
2022-08-24T04:50:14.126Z,7.90
2022-08-24T04:51:14.156Z,7.20
2022-08-24T04:52:14.096Z,7.30
2022-08-24T04:53:14.094Z,7.70
2022-08-24T04:54:14.101Z,7.30
2022-08-24T04:55:14.071Z,7.90
2022-08-24T04:56:14.080Z,7.20
2022-08-24T04:57:17.970Z,7.70
2022-08-24T04:58:14.041Z,7.40
2022-08-24T04:59:14.036Z,7.40
2022-08-24T05:00:14.006Z,7.10
2022-08-24T05:01:14.024Z,7.20
2022-08-24T05:02:14.057Z,7.50
2022-08-24T05:03:13.978Z,7.40
2022-08-24T05:04:13.938Z,7.00
2022-08-24T05:05:13.936Z,7.40
2022-08-24T05:06:13.951Z,7.40
2022-08-24T05:07:13.927Z,7.80
2022-08-24T05:08:13.890Z,7.60
2022-08-24T05:09:13.875Z,7.40
2022-08-24T05:10:13.852Z,7.30
2022-08-24T05:11:13.845Z,7.30
2022-08-24T05:12:13.913Z,7.30
2022-08-24T05:13:13.827Z,7.90
2022-08-24T05:14:13.795Z,7.80
2022-08-24T05:15:13.795Z,7.60
2022-08-24T05:16:13.885Z,7.50
2022-08-24T05:17:13.792Z,7.60
2022-08-24T05:18:13.745Z,8.10
2022-08-24T05:19:13.734Z,8.10
2022-08-24T05:20:13.727Z,8.00
2022-08-24T05:21:13.707Z,8.00
2022-08-24T05:22:13.711Z,8.00
2022-08-24T05:23:13.693Z,7.90
2022-08-24T05:24:13.704Z,7.90
2022-08-24T05:25:13.657Z,7.00
2022-08-24T05:26:13.647Z,7.40
2022-08-24T05:27:14.135Z,7.20
2022-08-24T05:28:13.633Z,7.80
2022-08-24T05:29:13.634Z,7.30
2022-08-24T05:30:13.608Z,7.50
2022-08-24T05:31:13.633Z,7.20
2022-08-24T05:32:13.618Z,7.50
2022-08-24T05:33:13.549Z,7.30
2022-08-24T05:34:13.527Z,7.10
2022-08-24T05:35:13.555Z,7.20
2022-08-24T05:36:13.504Z,7.70
2022-08-24T05:37:13.498Z,7.60
2022-08-24T05:38:13.476Z,7.50
2022-08-24T05:39:13.501Z,7.10
2022-08-24T05:40:13.517Z,7.60
2022-08-24T05:41:13.447Z,7.00
2022-08-24T05:42:13.418Z,6.50
2022-08-24T05:43:13.412Z,7.10
2022-08-24T05:44:13.432Z,6.80
2022-08-24T05:45:13.385Z,7.30
2022-08-24T05:46:13.395Z,6.90
2022-08-24T05:47:13.377Z,6.90
2022-08-24T05:48:13.342Z,6.20
2022-08-24T05:49:13.375Z,6.90
2022-08-24T05:50:13.316Z,7.30
2022-08-24T05:51:13.305Z,7.10
2022-08-24T05:52:13.291Z,6.90
2022-08-24T05:53:13.274Z,7.10
2022-08-24T05:54:13.305Z,6.90
2022-08-24T05:55:13.286Z,7.40
2022-08-24T05:56:13.232Z,6.60
2022-08-24T05:57:13.222Z,6.80
2022-08-24T05:58:13.230Z,7.20
2022-08-24T05:59:13.211Z,6.90
2022-08-24T06:00:13.204Z,6.60
2022-08-24T06:01:13.163Z,7.00
2022-08-24T06:02:13.272Z,6.50
2022-08-24T06:03:14.660Z,6.40
2022-08-24T06:04:13.167Z,6.60
2022-08-24T06:05:13.111Z,6.10
2022-08-24T06:06:13.094Z,6.20
2022-08-24T06:07:13.086Z,5.80
2022-08-24T06:08:13.063Z,6.20
2022-08-24T06:09:13.081Z,5.80
2022-08-24T06:10:35.471Z,5.90
2022-08-24T06:11:13.039Z,5.70
2022-08-24T06:12:13.048Z,6.00
2022-08-24T06:13:13.070Z,5.50
2022-08-24T06:14:13.027Z,6.10
2022-08-24T06:15:13.001Z,5.60
2022-08-24T06:16:21.586Z,5.50
2022-08-24T06:17:13.123Z,5.10
2022-08-24T06:18:13.108Z,6.60
2022-08-24T06:19:12.930Z,5.90
2022-08-24T06:20:12.908Z,5.60
2022-08-24T06:21:12.902Z,5.50
2022-08-24T06:22:12.891Z,4.80
2022-08-24T06:23:12.865Z,4.80
2022-08-24T06:24:12.883Z,4.90
2022-08-24T06:25:12.868Z,4.90
2022-08-24T06:26:15.818Z,4.70
2022-08-24T06:27:12.815Z,4.70
2022-08-24T06:28:12.797Z,4.90
2022-08-24T06:29:12.791Z,4.50
2022-08-24T06:30:12.795Z,4.70
2022-08-24T06:31:12.801Z,4.60
2022-08-24T06:32:12.764Z,4.60
2022-08-24T06:33:12.728Z,4.50
2022-08-24T06:34:12.722Z,4.70
2022-08-24T06:35:12.726Z,4.20
2022-08-24T06:36:12.695Z,4.60
2022-08-24T06:37:12.669Z,4.30
2022-08-24T06:38:12.674Z,4.20
2022-08-24T06:39:12.647Z,4.20
2022-08-24T06:40:12.723Z,4.60
2022-08-24T06:41:12.650Z,4.20
2022-08-24T06:42:12.609Z,4.10
2022-08-24T06:43:12.592Z,3.80
2022-08-24T06:44:12.579Z,4.00
2022-08-24T06:45:12.561Z,3.80
2022-08-24T06:46:12.623Z,4.00
2022-08-24T06:47:12.537Z,3.90
2022-08-24T06:48:12.536Z,3.90
2022-08-24T06:49:12.536Z,3.90
2022-08-24T06:50:12.509Z,3.90
2022-08-24T06:51:12.518Z,3.90
2022-08-24T06:52:12.472Z,4.00
2022-08-24T06:53:12.474Z,4.40
2022-08-24T06:54:12.537Z,4.00
2022-08-24T06:55:12.439Z,4.20
2022-08-24T06:56:12.450Z,4.20
2022-08-24T06:57:12.402Z,3.90
2022-08-24T06:58:12.427Z,4.00
2022-08-24T06:59:12.373Z,4.00
2022-08-24T07:00:12.369Z,3.90
2022-08-24T07:01:12.384Z,4.20
2022-08-24T07:02:12.335Z,4.00
2022-08-24T07:03:12.382Z,4.10
2022-08-24T07:04:12.310Z,4.00
2022-08-24T07:05:12.296Z,3.90
2022-08-24T07:06:12.281Z,3.90
2022-08-24T07:07:12.297Z,4.20
2022-08-24T07:08:12.288Z,4.50
2022-08-24T07:09:12.249Z,3.90
2022-08-24T07:10:12.229Z,3.90
2022-08-24T07:11:12.219Z,3.70
2022-08-24T07:12:12.195Z,3.50
2022-08-24T07:13:12.216Z,3.80
2022-08-24T07:14:12.203Z,4.20
2022-08-24T07:15:16.373Z,4.00
2022-08-24T07:16:12.172Z,3.80
2022-08-24T07:17:12.127Z,3.60
2022-08-24T07:18:12.123Z,3.50
2022-08-24T07:19:12.123Z,3.60
2022-08-24T07:20:12.102Z,3.70
2022-08-24T07:21:12.078Z,3.70
2022-08-24T07:22:12.071Z,3.80
2022-08-24T07:23:12.067Z,3.60
2022-08-24T07:24:12.069Z,3.60
2022-08-24T07:25:12.029Z,3.70
2022-08-24T07:26:15.115Z,3.50
2022-08-24T07:27:12.008Z,3.80
2022-08-24T07:28:12.099Z,4.20
2022-08-24T07:29:36.478Z,8.70
2022-08-24T07:30:27.524Z,5.20
2022-08-24T07:31:12.072Z,8.70
2022-08-24T07:32:11.940Z,6.70
2022-08-24T07:33:11.911Z,4.30
2022-08-24T07:34:11.910Z,3.50
2022-08-24T07:35:11.889Z,4.20
2022-08-24T07:36:11.907Z,3.70
2022-08-24T07:37:11.873Z,3.40
2022-08-24T07:38:11.856Z,3.50
2022-08-24T07:39:11.833Z,3.50
2022-08-24T07:40:11.899Z,3.30
2022-08-24T07:41:38.218Z,3.40
2022-08-24T07:42:14.091Z,3.50
2022-08-24T07:43:11.787Z,3.50
2022-08-24T07:44:11.792Z,3.60
2022-08-24T07:45:11.784Z,3.50
2022-08-24T07:46:11.800Z,3.40
2022-08-24T07:47:36.368Z,3.30
2022-08-24T07:48:14.144Z,3.60
2022-08-24T07:49:31.373Z,3.30
2022-08-24T07:50:11.720Z,3.80
2022-08-24T07:51:11.703Z,3.60
2022-08-24T07:52:11.671Z,3.50
2022-08-24T07:53:15.101Z,3.90
2022-08-24T07:54:12.171Z,3.30
2022-08-24T07:55:11.611Z,3.30
2022-08-24T07:56:11.636Z,3.00
2022-08-24T07:57:11.589Z,3.20
2022-08-24T07:58:11.631Z,3.30
2022-08-24T07:59:13.496Z,3.50
2022-08-24T08:00:11.577Z,3.30
2022-08-24T08:01:11.612Z,3.30
2022-08-24T08:02:11.771Z,3.10
2022-08-24T08:03:11.620Z,3.30
2022-08-24T08:04:11.492Z,3.40
2022-08-24T08:05:11.485Z,3.30
2022-08-24T08:06:16.443Z,3.20
2022-08-24T08:07:11.503Z,3.30
2022-08-24T08:08:11.506Z,3.30
2022-08-24T08:09:11.424Z,2.90
2022-08-24T08:10:11.495Z,3.30
2022-08-24T08:11:11.401Z,3.40
2022-08-24T08:12:11.386Z,3.30
2022-08-24T08:13:11.415Z,3.10
2022-08-24T08:14:11.366Z,3.20
2022-08-24T08:15:11.350Z,3.30
2022-08-24T08:16:11.367Z,3.30
2022-08-24T08:17:11.346Z,3.30
2022-08-24T08:18:11.331Z,3.00
2022-08-24T08:19:11.668Z,3.20
2022-08-24T08:20:11.294Z,3.30
2022-08-24T08:21:14.225Z,3.10
2022-08-24T08:22:11.251Z,3.20
2022-08-24T08:23:11.237Z,3.00
2022-08-24T08:24:11.258Z,3.20
2022-08-24T08:25:11.237Z,3.10
2022-08-24T08:26:11.201Z,3.40
2022-08-24T08:27:11.209Z,3.00
2022-08-24T08:28:25.136Z,3.10
2022-08-24T08:29:11.160Z,2.90
2022-08-24T08:30:11.161Z,2.80
2022-08-24T08:31:11.235Z,2.90
2022-08-24T08:32:11.154Z,3.00
2022-08-24T08:33:11.173Z,2.90
2022-08-24T08:34:11.088Z,2.90
2022-08-24T08:35:11.091Z,2.90
2022-08-24T08:36:11.065Z,3.10
2022-08-24T08:37:11.046Z,3.30
2022-08-24T08:38:11.084Z,3.00
2022-08-24T08:39:11.019Z,3.10
2022-08-24T08:40:11.058Z,3.00
2022-08-24T08:41:10.994Z,3.10
2022-08-24T08:42:10.980Z,2.90
2022-08-24T08:43:11.002Z,3.00
2022-08-24T08:44:10.950Z,2.90
2022-08-24T08:45:10.946Z,3.30
2022-08-24T08:46:10.972Z,2.80
2022-08-24T08:47:10.934Z,2.60
2022-08-24T08:48:10.935Z,2.90
2022-08-24T08:49:10.877Z,2.90
2022-08-24T08:50:10.913Z,3.00
2022-08-24T08:51:12.165Z,2.90
2022-08-24T08:52:10.840Z,3.00
2022-08-24T08:53:10.821Z,2.80
2022-08-24T08:54:10.819Z,2.80
2022-08-24T08:55:10.839Z,2.80
2022-08-24T08:56:11.861Z,3.00
2022-08-24T08:57:12.261Z,2.70
2022-08-24T08:58:10.771Z,2.60
2022-08-24T08:59:10.750Z,2.60
2022-08-24T09:00:10.740Z,2.90
2022-08-24T09:01:10.825Z,2.90
2022-08-24T09:02:10.712Z,2.80
2022-08-24T09:03:10.692Z,2.80
2022-08-24T09:04:14.650Z,2.90
2022-08-24T09:05:10.732Z,2.80
2022-08-24T09:06:10.659Z,2.80
2022-08-24T09:07:10.636Z,2.60
2022-08-24T09:08:10.685Z,2.60
2022-08-24T09:09:10.616Z,2.90
2022-08-24T09:10:10.619Z,2.70
2022-08-24T09:11:10.586Z,2.80
2022-08-24T09:12:10.579Z,2.60
2022-08-24T09:13:10.591Z,2.80
2022-08-24T09:14:10.549Z,2.60
2022-08-24T09:15:10.555Z,3.20
2022-08-24T09:16:11.049Z,2.90
2022-08-24T09:17:13.169Z,2.80
2022-08-24T09:18:10.518Z,4.80
2022-08-24T09:19:10.475Z,4.90
2022-08-24T09:20:10.468Z,2.80
2022-08-24T09:21:10.454Z,2.80
2022-08-24T09:22:10.442Z,3.50
2022-08-24T09:23:10.447Z,3.60
2022-08-24T09:24:10.421Z,3.10
2022-08-24T09:25:10.395Z,3.00
2022-08-24T09:26:10.387Z,3.30
2022-08-24T09:27:10.399Z,2.80
2022-08-24T09:28:10.358Z,2.80
2022-08-24T09:29:10.349Z,2.70
2022-08-24T09:30:10.359Z,2.80
2022-08-24T09:31:10.441Z,2.80
2022-08-24T09:32:10.888Z,2.90
2022-08-24T09:33:10.454Z,2.60
2022-08-24T09:34:10.300Z,2.90
2022-08-24T09:35:10.261Z,2.70
2022-08-24T09:36:10.280Z,2.80
2022-08-24T09:37:10.263Z,2.50
2022-08-24T09:38:10.221Z,2.70
2022-08-24T09:39:10.217Z,2.60
2022-08-24T09:40:10.247Z,2.70
2022-08-24T09:41:10.210Z,2.90
2022-08-24T09:42:10.172Z,2.60
2022-08-24T09:43:10.181Z,2.70
2022-08-24T09:44:10.139Z,2.50
2022-08-24T09:45:10.130Z,2.60
2022-08-24T09:46:10.187Z,2.60
2022-08-24T09:47:10.098Z,2.60
2022-08-24T09:48:16.075Z,2.60
2022-08-24T09:49:13.983Z,2.60
2022-08-24T09:50:10.061Z,2.60
2022-08-24T09:51:10.070Z,2.60
2022-08-24T09:52:10.037Z,2.80
2022-08-24T09:53:10.026Z,2.50
2022-08-24T09:54:10.315Z,2.80
2022-08-24T09:55:09.982Z,2.40
2022-08-24T09:56:09.989Z,2.50
2022-08-24T09:57:12.592Z,2.40
2022-08-24T09:58:10.016Z,2.70
2022-08-24T09:59:09.975Z,2.70
2022-08-24T10:00:09.955Z,2.80
2022-08-24T10:01:09.965Z,2.90
2022-08-24T10:02:09.954Z,2.60
2022-08-24T10:03:09.887Z,2.60
2022-08-24T10:04:09.877Z,2.80
2022-08-24T10:05:09.998Z,2.70
2022-08-24T10:06:09.984Z,2.80
2022-08-24T10:07:09.826Z,2.50
2022-08-24T10:08:09.816Z,2.40
2022-08-24T10:09:09.822Z,2.60
2022-08-24T10:10:09.820Z,2.50
2022-08-24T10:11:09.810Z,2.70
2022-08-24T10:12:09.791Z,2.60
2022-08-24T10:13:09.760Z,3.00
2022-08-24T10:14:09.733Z,2.40
2022-08-24T10:15:09.747Z,2.60
2022-08-24T10:16:09.755Z,2.60
2022-08-24T10:17:09.698Z,2.80
2022-08-24T10:18:09.675Z,2.70
2022-08-24T10:19:09.666Z,2.60
2022-08-24T10:20:09.680Z,2.80
2022-08-24T10:21:09.633Z,2.60
2022-08-24T10:22:09.651Z,2.70
2022-08-24T10:23:09.619Z,2.40
2022-08-24T10:24:09.623Z,2.60
2022-08-24T10:25:09.616Z,2.80
2022-08-24T10:26:09.584Z,2.70
2022-08-24T10:27:09.560Z,2.60
2022-08-24T10:28:09.596Z,2.60
2022-08-24T10:29:09.547Z,2.50
2022-08-24T10:30:09.528Z,2.70
2022-08-24T10:31:12.708Z,2.70
2022-08-24T10:32:09.520Z,2.30
2022-08-24T10:33:09.537Z,2.40
2022-08-24T10:34:09.469Z,2.70
2022-08-24T10:35:09.454Z,2.60
2022-08-24T10:36:09.444Z,2.50
2022-08-24T10:37:09.421Z,2.90
2022-08-24T10:38:09.440Z,2.40
2022-08-24T10:39:09.400Z,2.60
2022-08-24T10:40:09.728Z,2.90
2022-08-24T10:41:09.409Z,2.60
2022-08-24T10:42:10.599Z,2.70
2022-08-24T10:43:09.349Z,2.70
2022-08-24T10:44:09.356Z,2.60
2022-08-24T10:45:09.327Z,2.70
2022-08-24T10:46:09.391Z,2.70
2022-08-24T10:47:09.317Z,2.60
2022-08-24T10:48:09.286Z,2.70
2022-08-24T10:49:09.271Z,2.60
2022-08-24T10:50:09.390Z,2.50
2022-08-24T10:51:09.297Z,2.40
2022-08-24T10:52:09.456Z,2.40
2022-08-24T10:53:09.407Z,2.40
2022-08-24T10:54:09.221Z,2.40
2022-08-24T10:55:09.387Z,2.70
2022-08-24T10:56:09.410Z,2.40
2022-08-24T10:57:12.257Z,2.40
2022-08-24T10:58:09.198Z,2.30
2022-08-24T10:59:09.161Z,2.50
2022-08-24T11:00:09.121Z,2.50
2022-08-24T11:01:09.128Z,2.50
2022-08-24T11:02:12.705Z,2.60
2022-08-24T11:03:09.090Z,2.40
2022-08-24T11:04:09.072Z,2.20
2022-08-24T11:05:09.087Z,2.40
2022-08-24T11:06:09.039Z,2.30
2022-08-24T11:07:09.032Z,2.10
2022-08-24T11:08:09.017Z,2.10
2022-08-24T11:09:09.191Z,2.40
2022-08-24T11:10:09.017Z,2.60
2022-08-24T11:11:09.048Z,2.20
2022-08-24T11:12:08.965Z,2.10
2022-08-24T11:13:08.988Z,2.30
2022-08-24T11:14:09.708Z,2.30
2022-08-24T11:15:08.951Z,2.50
2022-08-24T11:16:09.067Z,2.20
2022-08-24T11:17:09.535Z,2.20
2022-08-24T11:18:08.923Z,2.50
2022-08-24T11:19:08.908Z,2.60
2022-08-24T11:20:08.857Z,2.40
2022-08-24T11:21:08.851Z,2.60
2022-08-24T11:22:08.864Z,2.60
2022-08-24T11:23:08.832Z,2.70
2022-08-24T11:24:08.811Z,2.80
2022-08-24T11:25:08.792Z,2.90
2022-08-24T11:26:08.811Z,3.10
2022-08-24T11:27:08.791Z,3.30
2022-08-24T11:28:08.761Z,2.40
2022-08-24T11:29:08.767Z,2.50
2022-08-24T11:30:08.748Z,2.50
2022-08-24T11:31:08.761Z,2.30
2022-08-24T11:32:08.698Z,2.30
2022-08-24T11:33:08.722Z,2.20
2022-08-24T11:34:08.684Z,2.50
2022-08-24T11:35:08.669Z,2.30
2022-08-24T11:36:08.719Z,2.40
2022-08-24T11:37:08.675Z,2.30
2022-08-24T11:38:08.629Z,2.30
2022-08-24T11:39:08.626Z,2.20
2022-08-24T11:40:08.725Z,2.40
2022-08-24T11:41:08.650Z,2.20
2022-08-24T11:42:08.571Z,2.50
2022-08-24T11:43:08.562Z,2.10
2022-08-24T11:44:08.571Z,2.50
2022-08-24T11:45:08.568Z,2.30
2022-08-24T11:46:08.549Z,2.30
2022-08-24T11:47:08.510Z,2.50
2022-08-24T11:48:08.494Z,2.30
2022-08-24T11:49:08.494Z,2.30
2022-08-24T11:50:08.473Z,2.50
2022-08-24T11:51:08.514Z,2.30
2022-08-24T11:52:08.448Z,2.20
2022-08-24T11:53:12.191Z,2.20
2022-08-24T11:54:08.423Z,2.20
2022-08-24T11:55:08.413Z,2.30
2022-08-24T11:56:08.416Z,2.30
2022-08-24T11:57:08.798Z,2.20
2022-08-24T11:58:08.367Z,2.00
2022-08-24T11:59:08.356Z,2.20
2022-08-24T12:00:08.363Z,2.30
2022-08-24T12:01:08.406Z,2.10
2022-08-24T12:02:08.529Z,2.20
2022-08-24T12:03:08.434Z,2.10
2022-08-24T12:04:08.329Z,2.10
2022-08-24T12:05:08.310Z,2.20
2022-08-24T12:06:08.299Z,2.30
2022-08-24T12:07:08.271Z,2.30
2022-08-24T12:08:08.285Z,2.20
2022-08-24T12:09:08.262Z,2.00
2022-08-24T12:10:08.215Z,2.20
2022-08-24T12:11:08.222Z,2.20
2022-08-24T12:12:08.218Z,2.10
2022-08-24T12:13:08.177Z,2.10
2022-08-24T12:14:08.156Z,2.10
2022-08-24T12:15:08.200Z,2.20
2022-08-24T12:16:08.263Z,2.00
2022-08-24T12:17:08.167Z,2.20
2022-08-24T12:18:08.119Z,1.90
2022-08-24T12:19:08.112Z,2.10
2022-08-24T12:20:08.109Z,2.00
2022-08-24T12:21:12.538Z,2.10
2022-08-24T12:22:08.084Z,2.10
2022-08-24T12:23:08.766Z,1.90
2022-08-24T12:24:08.030Z,4.30
2022-08-24T12:25:08.033Z,2.90
2022-08-24T12:26:08.011Z,4.20
2022-08-24T12:27:08.032Z,2.10
2022-08-24T12:28:07.982Z,2.20
2022-08-24T12:29:07.972Z,2.00
2022-08-24T12:30:07.976Z,2.30
2022-08-24T12:31:07.993Z,2.00
2022-08-24T12:32:07.960Z,2.00
2022-08-24T12:33:07.924Z,2.00
2022-08-24T12:34:09.710Z,1.90
2022-08-24T12:35:07.894Z,2.10
2022-08-24T12:36:07.876Z,2.00
2022-08-24T12:37:16.337Z,2.30
2022-08-24T12:38:07.913Z,2.00
2022-08-24T12:39:07.840Z,2.10
2022-08-24T12:40:07.866Z,2.10
2022-08-24T12:41:11.137Z,1.90
2022-08-24T12:42:07.796Z,1.90
2022-08-24T12:43:07.816Z,3.40
2022-08-24T12:44:07.773Z,2.30
2022-08-24T12:45:07.762Z,2.20
2022-08-24T12:46:07.802Z,2.10
2022-08-24T12:47:07.773Z,2.50
2022-08-24T12:48:07.749Z,1.90
2022-08-24T12:49:07.747Z,2.00
2022-08-24T12:50:07.700Z,2.00
2022-08-24T12:51:07.709Z,2.00
2022-08-24T12:52:07.673Z,1.80
2022-08-24T12:53:12.188Z,2.10
2022-08-24T12:54:07.680Z,2.00
2022-08-24T12:55:07.666Z,2.00
2022-08-24T12:56:07.630Z,2.00
2022-08-24T12:57:07.619Z,2.30
2022-08-24T12:58:30.879Z,1.80
2022-08-24T12:59:07.652Z,1.90
2022-08-24T13:00:07.660Z,2.10
2022-08-24T13:01:07.689Z,1.90
2022-08-24T13:02:07.655Z,2.10
2022-08-24T13:03:07.547Z,2.00
2022-08-24T13:04:07.545Z,2.10
2022-08-24T13:05:07.519Z,2.20
2022-08-24T13:06:07.516Z,2.20
2022-08-24T13:07:07.485Z,2.30
2022-08-24T13:08:07.491Z,2.20
2022-08-24T13:09:07.470Z,1.80
2022-08-24T13:10:07.542Z,2.90
2022-08-24T13:11:07.475Z,1.80
2022-08-24T13:12:07.452Z,2.00
2022-08-24T13:13:07.424Z,2.00
2022-08-24T13:14:07.400Z,2.20
2022-08-24T13:15:07.394Z,2.00
2022-08-24T13:16:07.415Z,1.90
2022-08-24T13:17:07.409Z,2.00
2022-08-24T13:18:07.670Z,1.90